Time;durP1;ratioP1;P1;durP2;ratioP2;P2;SDS_P1;SDS_P2;PMS_P1;PMS_P2;Temp;Humidity;BMP_temperature;BMP_pressure;BME280_temperature;BME280_humidity;BME280_pressure;Samples;Min_cycle;Max_cycle;Signal;HPM_P1;HPM_P2
2024/03/16 00:04:33;;;;;;;2.47;1.40;;;;;;;12.91;99.85;99815.44;10420250;28;20053;-68
2024/03/16 00:09:35;;;;;;;3.65;1.50;;;;;;;12.83;99.20;99802.81;10439242;28;20137;-67
2024/03/16 00:14:36;;;;;;;3.58;1.60;;;;;;;12.85;98.41;99808.00;10451505;28;20135;-67
2024/03/16 00:19:37;;;;;;;3.60;1.38;;;;;;;12.75;98.32;99810.72;10452478;28;20139;-68
2024/03/16 00:24:40;;;;;;;5.05;1.38;;;;;;;12.76;97.86;99812.41;10425221;28;20846;-68
2024/03/16 00:29:41;;;;;;;3.08;1.02;;;;;;;12.78;97.54;99814.94;10442305;28;20048;-67
2024/03/16 00:34:44;;;;;;;3.70;1.48;;;;;;;12.68;96.73;99805.13;10455841;28;20594;-67
2024/03/16 00:39:46;;;;;;;4.07;1.10;;;;;;;12.66;96.84;99817.78;10466483;28;20053;-67
2024/03/16 00:44:47;;;;;;;3.42;1.33;;;;;;;12.65;96.47;99813.44;10433694;28;20045;-68
2024/03/16 00:49:48;;;;;;;3.72;1.20;;;;;;;12.67;96.14;99805.28;10413284;28;20048;-66
2024/03/16 00:54:50;;;;;;;2.63;1.27;;;;;;;12.58;95.50;99801.69;10452745;28;20055;-68
2024/03/16 00:59:51;;;;;;;2.20;1.60;;;;;;;12.36;95.24;99769.03;10444897;28;20047;-66
2024/03/16 01:04:53;;;;;;;3.42;1.10;;;;;;;12.36;95.26;99795.72;10431358;28;20721;-68
2024/03/16 01:09:55;;;;;;;2.80;0.95;;;;;;;12.48;95.44;99808.88;10441145;28;20060;-68
2024/03/16 01:14:57;;;;;;;2.25;1.23;;;;;;;12.46;95.32;99818.84;10444835;28;20114;-67
2024/03/16 01:19:59;;;;;;;2.92;0.90;;;;;;;12.43;95.63;99816.47;10435598;28;20483;-67
2024/03/16 01:25:01;;;;;;;3.53;0.85;;;;;;;12.43;95.66;99812.00;10423963;28;20048;-67
2024/03/16 01:30:04;;;;;;;3.05;0.98;;;;;;;12.32;95.89;99813.00;10445551;28;20064;-66
2024/03/16 01:35:06;;;;;;;4.10;1.13;;;;;;;12.43;95.87;99811.13;10444861;28;20133;-67
2024/03/16 01:40:09;;;;;;;2.92;1.10;;;;;;;12.37;96.02;99813.41;10419807;28;20191;-68
2024/03/16 01:45:14;;;;;;;3.03;1.02;;;;;;;12.32;96.24;99821.00;10422769;28;20047;-67
2024/03/16 01:50:20;;;;;;;1.88;1.30;;;;;;;12.27;97.31;99815.28;10442744;28;20053;-67
2024/03/16 01:55:22;;;;;;;4.22;1.50;;;;;;;12.37;97.01;99813.41;10449005;28;20052;-66
2024/03/16 02:00:23;;;;;;;3.20;1.42;;;;;;;12.25;97.60;99801.25;10408746;28;20060;-65
2024/03/16 02:05:25;;;;;;;2.38;1.42;;;;;;;12.34;97.39;99813.72;10430401;28;20044;-67
2024/03/16 02:10:27;;;;;;;4.80;1.63;;;;;;;12.35;97.73;99814.53;10412612;28;20059;-67
2024/03/16 02:15:28;;;;;;;2.45;1.15;;;;;;;12.27;97.44;99798.44;10453628;28;20434;-67
2024/03/16 02:20:31;;;;;;;2.80;1.45;;;;;;;12.31;98.06;99823.81;10441454;28;20060;-67
2024/03/16 02:25:34;;;;;;;1.70;1.27;;;;;;;12.28;99.02;99830.31;10443628;28;20059;-68
2024/03/16 02:30:36;;;;;;;2.55;0.95;;;;;;;12.43;98.37;99832.50;10442083;28;20068;-67
2024/03/16 02:35:38;;;;;;;4.13;1.38;;;;;;;12.28;98.29;99830.31;10433404;28;20044;-66
2024/03/16 02:40:39;;;;;;;2.90;0.90;;;;;;;12.09;99.16;99833.03;10446610;28;20051;-67
2024/03/16 02:45:41;;;;;;;2.15;0.88;;;;;;;12.16;98.54;99834.97;10428100;28;20667;-67
2024/03/16 02:50:42;;;;;;;1.60;0.90;;;;;;;12.22;98.12;99836.22;10448674;28;20067;-68
2024/03/16 02:55:46;;;;;;;2.70;1.00;;;;;;;12.20;98.45;99844.38;10445076;28;20045;-66
2024/03/16 03:00:49;;;;;;;4.18;1.15;;;;;;;12.26;98.35;99853.63;10446114;28;20068;-68
2024/03/16 03:05:52;;;;;;;3.67;1.65;;;;;;;12.26;98.42;99850.13;10449281;28;20048;-68
2024/03/16 03:10:55;;;;;;;2.50;1.35;;;;;;;12.27;98.27;99857.16;10425124;28;20055;-67
2024/03/16 03:15:57;;;;;;;2.08;0.98;;;;;;;12.17;98.62;99851.81;10446128;28;20556;-67
2024/03/16 03:20:58;;;;;;;2.28;1.00;;;;;;;12.10;99.51;99854.22;10438571;28;20611;-67
2024/03/16 03:26:00;;;;;;;3.28;0.82;;;;;;;11.97;99.97;99849.19;10447088;28;20053;-67
2024/03/16 03:31:03;;;;;;;1.60;1.10;;;;;;;11.93;100.00;99853.09;10447049;28;20634;-68
2024/03/16 03:36:05;;;;;;;2.58;1.27;;;;;;;11.76;100.00;99837.81;10392821;28;20078;-67
2024/03/16 03:41:08;;;;;;;1.70;1.13;;;;;;;11.78;100.00;99841.16;10446852;28;20100;-67
2024/03/16 03:46:18;;;;;;;4.05;2.05;;;;;;;11.87;100.00;99858.16;10449514;28;20053;-67
2024/03/16 03:51:20;;;;;;;2.33;1.33;;;;;;;11.75;100.00;99854.78;10443664;28;20052;-67
2024/03/16 03:56:22;;;;;;;3.83;1.33;;;;;;;11.79;100.00;99872.19;10428449;28;20059;-68
2024/03/16 04:01:23;;;;;;;4.00;1.58;;;;;;;11.79;100.00;99877.53;10441674;28;20055;-66
2024/03/16 04:06:25;;;;;;;1.70;1.00;;;;;;;11.88;100.00;99884.69;10446420;28;20120;-68
2024/03/16 04:11:27;;;;;;;2.95;1.23;;;;;;;11.92;100.00;99885.22;10408935;28;20049;-68
2024/03/16 04:16:30;;;;;;;2.25;1.35;;;;;;;11.85;100.00;99890.28;10416557;28;20690;-68
2024/03/16 04:21:32;;;;;;;1.90;1.42;;;;;;;11.78;100.00;99887.31;10408778;28;20128;-65
2024/03/16 04:26:34;;;;;;;3.65;1.25;;;;;;;11.75;100.00;99890.28;10420483;28;20095;-66
2024/03/16 04:31:37;;;;;;;3.17;2.20;;;;;;;11.78;100.00;99886.50;10439418;28;20143;-66
2024/03/16 04:36:39;;;;;;;2.00;1.65;;;;;;;11.64;100.00;99895.75;10428465;28;20604;-68
2024/03/16 04:41:40;;;;;;;1.92;1.30;;;;;;;11.66;100.00;99885.78;10448703;28;20056;-68
2024/03/16 04:46:42;;;;;;;3.53;1.20;;;;;;;11.58;100.00;99891.81;10448349;28;20055;-68
2024/03/16 04:51:45;;;;;;;1.83;1.30;;;;;;;11.53;100.00;99888.75;10433228;28;20130;-68
2024/03/16 04:56:47;;;;;;;2.50;1.75;;;;;;;11.53;100.00;99888.75;10457169;28;20052;-67
2024/03/16 05:01:48;;;;;;;2.17;1.27;;;;;;;11.49;100.00;99882.00;10444859;28;20120;-67
2024/03/16 05:06:51;;;;;;;4.22;1.23;;;;;;;11.54;100.00;99895.72;10451750;28;20058;-67
2024/03/16 05:11:52;;;;;;;3.75;1.38;;;;;;;11.58;100.00;99897.16;10436372;28;20036;-68
2024/03/16 05:16:53;;;;;;;2.08;1.52;;;;;;;11.52;100.00;99892.38;10427556;28;20083;-66
2024/03/16 05:21:55;;;;;;;1.83;1.17;;;;;;;11.49;100.00;99904.16;10444854;28;20117;-67
2024/03/16 05:26:57;;;;;;;2.25;1.00;;;;;;;11.55;100.00;99905.44;10428331;28;20525;-68
2024/03/16 05:31:59;;;;;;;2.42;1.45;;;;;;;11.47;100.00;99900.78;10435116;28;20757;-67
2024/03/16 05:37:01;;;;;;;2.70;1.27;;;;;;;11.39;100.00;99913.13;10408204;28;20040;-66
2024/03/16 05:42:02;;;;;;;4.20;1.98;;;;;;;11.40;100.00;99928.13;10442604;28;20055;-67
2024/03/16 05:47:04;;;;;;;5.13;1.73;;;;;;;11.40;100.00;99939.63;10444801;28;20630;-67
2024/03/16 05:52:05;;;;;;;3.22;1.52;;;;;;;11.31;100.00;99937.78;10412580;28;20634;-67
2024/03/16 05:57:07;;;;;;;2.00;1.40;;;;;;;11.22;100.00;99936.78;10437217;28;20123;-68
2024/03/16 06:02:08;;;;;;;2.50;1.40;;;;;;;11.25;100.00;99939.16;10424920;28;20178;-68
2024/03/16 06:07:11;;;;;;;2.72;1.40;;;;;;;11.32;100.00;99950.97;10428758;28;20067;-68
2024/03/16 06:12:12;;;;;;;1.85;1.20;;;;;;;11.43;100.00;99957.16;10442630;28;20106;-68
2024/03/16 06:17:14;;;;;;;1.55;1.08;;;;;;;11.41;100.00;99959.13;10440470;28;20044;-70
2024/03/16 06:22:16;;;;;;;2.85;1.50;;;;;;;11.48;100.00;99973.59;10417518;28;20606;-66
2024/03/16 06:27:21;;;;;;;3.78;1.42;;;;;;;11.32;100.00;99980.28;10437763;28;20053;-65
2024/03/16 06:32:23;;;;;;;1.88;1.30;;;;;;;11.39;100.00;99988.56;10443094;28;20056;-68
2024/03/16 06:37:24;;;;;;;1.67;1.20;;;;;;;11.26;100.00;99993.28;10388380;28;20461;-67
2024/03/16 06:42:28;;;;;;;3.33;1.00;;;;;;;11.42;100.00;100003.44;10405245;28;20056;-67
2024/03/16 06:47:29;;;;;;;3.60;1.47;;;;;;;11.35;100.00;99997.84;10417126;28;20044;-65
2024/03/16 06:52:31;;;;;;;2.45;1.30;;;;;;;11.42;100.00;99998.94;10432448;28;20049;-66
2024/03/16 06:57:33;;;;;;;2.40;1.58;;;;;;;11.49;100.00;100015.25;10445936;28;20135;-68
2024/03/16 07:02:35;;;;;;;3.38;1.42;;;;;;;11.61;99.81;100014.16;10425371;28;20081;-68
2024/03/16 07:07:38;;;;;;;1.20;1.08;;;;;;;11.75;98.54;100023.59;10443044;28;20084;-67
2024/03/16 07:12:39;;;;;;;2.50;1.27;;;;;;;11.92;98.08;100040.78;10444623;28;20498;-65
2024/03/16 07:17:42;;;;;;;1.42;1.30;;;;;;;11.85;97.63;100052.97;10421344;28;20076;-67
2024/03/16 07:22:45;;;;;;;2.88;1.77;;;;;;;11.88;97.21;100062.53;10283271;28;20044;-65
2024/03/16 07:27:49;;;;;;;4.33;1.40;;;;;;;11.94;97.20;100062.00;10423382;28;20048;-65
2024/03/16 07:32:51;;;;;;;3.83;2.05;;;;;;;12.02;96.78;100071.03;10435899;28;21764;-68
2024/03/16 07:37:53;;;;;;;2.83;1.60;;;;;;;12.11;96.13;100082.66;10437359;28;20040;-67
2024/03/16 07:42:55;;;;;;;3.22;1.90;;;;;;;12.07;95.55;100088.41;10403315;28;20036;-67
2024/03/16 07:47:57;;;;;;;2.17;1.80;;;;;;;12.13;96.09;100090.53;10439856;28;20379;-65
2024/03/16 07:52:58;;;;;;;3.40;1.80;;;;;;;12.12;95.73;100091.53;10437818;28;20056;-67
2024/03/16 07:58:00;;;;;;;2.42;2.13;;;;;;;12.11;95.52;100087.16;10429829;28;20053;-67
2024/03/16 08:03:03;;;;;;;2.05;1.48;;;;;;;12.15;95.99;100099.28;10395153;28;20049;-69
2024/03/16 08:08:05;;;;;;;3.00;1.90;;;;;;;12.30;95.08;100097.88;10421855;28;20788;-68
2024/03/16 08:13:07;;;;;;;2.78;1.77;;;;;;;12.43;93.50;100102.09;10429544;28;20118;-66
2024/03/16 08:18:11;;;;;;;2.75;1.65;;;;;;;12.48;94.11;100114.06;10408599;28;20072;-64
2024/03/16 08:23:12;;;;;;;2.45;2.03;;;;;;;12.55;93.78;100109.00;10428690;28;20052;-68
2024/03/16 08:28:14;;;;;;;2.47;1.50;;;;;;;12.57;92.79;100108.88;10406022;28;20120;-67
2024/03/16 08:33:16;;;;;;;2.92;1.60;;;;;;;12.84;92.01;100114.34;10417325;28;20071;-67
2024/03/16 08:38:17;;;;;;;1.88;1.33;;;;;;;13.03;90.51;100129.50;10437547;28;20517;-65
2024/03/16 08:43:20;;;;;;;2.63;1.02;;;;;;;13.06;90.63;100134.56;10437683;28;20690;-66
2024/03/16 08:48:24;;;;;;;1.50;0.70;;;;;;;13.09;89.95;100139.63;10430913;28;20055;-66
2024/03/16 08:53:26;;;;;;;1.07;0.77;;;;;;;13.18;89.08;100131.72;10423920;28;20132;-66
2024/03/16 08:58:29;;;;;;;1.05;0.73;;;;;;;13.11;89.25;100142.16;10440411;28;20146;-68
2024/03/16 09:03:31;;;;;;;2.10;1.10;;;;;;;13.25;89.07;100141.69;10449401;28;20136;-67
2024/03/16 09:08:36;;;;;;;2.03;0.68;;;;;;;13.65;87.82;100142.50;10447243;28;20063;-68
2024/03/16 09:13:38;;;;;;;2.05;1.00;;;;;;;13.88;84.83;100150.13;10447808;28;20137;-68
2024/03/16 09:18:40;;;;;;;0.80;0.60;;;;;;;14.22;84.02;100155.75;10406131;28;20040;-67
2024/03/16 09:23:42;;;;;;;1.00;0.50;;;;;;;14.39;81.90;100153.25;10423528;28;20052;-69
2024/03/16 09:28:43;;;;;;;0.85;0.60;;;;;;;14.49;80.38;100160.22;10447076;28;20049;-67
2024/03/16 09:33:44;;;;;;;2.65;0.40;;;;;;;14.44;80.86;100159.00;10428238;28;20053;-65
2024/03/16 09:38:46;;;;;;;2.63;0.65;;;;;;;14.46;81.65;100160.53;10445302;28;20092;-65
2024/03/16 09:43:48;;;;;;;1.67;0.22;;;;;;;14.72;79.72;100164.34;10410025;28;20261;-66
2024/03/16 09:48:49;;;;;;;0.63;0.08;;;;;;;14.60;75.84;100172.56;10423963;28;20134;-67
2024/03/16 09:53:53;;;;;;;0.95;0.10;;;;;;;14.97;74.70;100168.94;10414534;28;20079;-67
2024/03/16 09:58:54;;;;;;;0.38;0.15;;;;;;;14.92;77.19;100191.81;10427210;28;20571;-67
2024/03/16 10:03:55;;;;;;;0.40;0.08;;;;;;;15.26;79.35;100188.44;10433701;28;20153;-67
2024/03/16 10:09:15;;;;;;;0.30;0.10;;;;;;;15.94;73.84;100193.06;10406825;28;20146;-68
2024/03/16 10:14:17;;;;;;;1.48;0.10;;;;;;;15.62;72.29;100207.13;10423927;28;20163;-68
2024/03/16 10:19:20;;;;;;;0.98;0.20;;;;;;;15.31;73.25;100213.78;10381760;28;20114;-70
2024/03/16 10:24:26;;;;;;;0.52;0.13;;;;;;;14.84;77.91;100222.88;10399636;28;20078;-69
2024/03/16 10:29:28;;;;;;;2.53;0.20;;;;;;;14.39;82.62;100239.78;10411874;28;20151;-68
2024/03/16 10:34:30;;;;;;;0.00;0.00;;;;;;;13.73;85.64;100235.38;10429780;28;20127;-68
2024/03/16 10:39:35;;;;;;;0.70;0.17;;;;;;;13.44;90.66;100266.53;10425737;28;20136;-67
2024/03/16 10:44:36;;;;;;;1.00;0.10;;;;;;;13.06;91.08;100273.53;10426935;28;20340;-68
2024/03/16 10:49:37;;;;;;;0.40;0.10;;;;;;;13.33;88.04;100263.13;10419268;28;20147;-73
2024/03/16 10:54:40;;;;;;;0.50;0.20;;;;;;;14.55;83.20;100282.00;10426061;28;20485;-70
2024/03/16 10:59:43;;;;;;;1.02;0.68;;;;;;;15.71;75.52;100294.72;10429541;28;20197;-69
2024/03/16 11:04:50;;;;;;;0.60;0.20;;;;;;;17.15;68.61;100299.50;10422057;28;20132;-69
2024/03/16 11:09:51;;;;;;;0.88;0.30;;;;;;;17.94;57.95;100305.28;10403044;28;20111;-68
2024/03/16 11:15:32;;;;;;;0.80;0.70;;;;;;;18.22;56.04;100301.38;10423268;28;20136;-71
2024/03/16 11:20:37;;;;;;;0.77;0.50;;;;;;;16.77;55.48;100312.50;10418874;28;20215;-70
2024/03/16 11:25:38;;;;;;;1.98;0.40;;;;;;;15.30;60.49;100318.53;10382314;28;20131;-69
2024/03/16 11:30:38;;;;;;;1.58;1.00;;;;;;;14.89;64.04;100329.63;10441117;28;20718;-68
2024/03/16 11:35:40;;;;;;;0.30;0.30;;;;;;;14.45;62.85;100330.22;10424210;28;20059;-69
2024/03/16 11:40:46;;;;;;;0.50;0.30;;;;;;;14.32;65.31;100346.66;10431067;28;20108;-68
2024/03/16 11:45:49;;;;;;;1.15;0.47;;;;;;;14.34;64.13;100349.19;10416603;28;20128;-72
2024/03/16 11:50:50;;;;;;;0.88;0.35;;;;;;;14.30;64.56;100375.38;10423532;28;20135;-70
2024/03/16 11:55:51;;;;;;;0.40;0.20;;;;;;;14.54;61.23;100381.25;10422287;28;20526;-68
2024/03/16 12:00:52;;;;;;;1.73;0.30;;;;;;;14.62;61.47;100389.41;10427778;28;20053;-67
2024/03/16 12:05:52;;;;;;;0.85;0.30;;;;;;;14.58;59.21;100398.72;10417349;28;20052;-69
2024/03/16 12:10:53;;;;;;;1.60;0.30;;;;;;;15.46;57.61;100401.84;10416402;28;20070;-68
2024/03/16 12:15:55;;;;;;;0.65;0.35;;;;;;;14.77;56.07;100404.03;10432150;28;20147;-68
2024/03/16 12:20:56;;;;;;;1.65;0.40;;;;;;;16.66;51.84;100407.66;10418383;28;20159;-69
2024/03/16 12:25:58;;;;;;;0.68;0.47;;;;;;;16.08;49.79;100420.72;10415537;28;20195;-68
2024/03/16 12:30:59;;;;;;;0.70;0.20;;;;;;;14.98;53.04;100430.63;10387961;28;20160;-69
2024/03/16 12:35:59;;;;;;;2.90;0.57;;;;;;;17.52;49.63;100431.91;10432978;28;20052;-69
2024/03/16 12:41:01;;;;;;;1.25;0.15;;;;;;;21.31;39.00;100411.91;10428953;28;20052;-69
2024/03/16 12:46:02;;;;;;;0.93;0.30;;;;;;;25.27;32.47;100426.06;10427869;28;20133;-70
2024/03/16 12:51:04;;;;;;;0.73;0.10;;;;;;;29.13;26.94;100424.34;10427459;28;20044;-72
2024/03/16 12:56:07;;;;;;;0.70;0.20;;;;;;;27.51;25.69;100424.56;10434263;28;20506;-71
2024/03/16 13:01:11;;;;;;;0.60;0.40;;;;;;;30.09;22.51;100433.88;10442652;28;20071;-69
2024/03/16 13:06:11;;;;;;;1.52;0.57;;;;;;;27.71;24.09;100439.84;10432275;28;20136;-71
2024/03/16 13:11:12;;;;;;;1.00;0.52;;;;;;;21.35;31.12;100427.56;10432805;28;20352;-72
2024/03/16 13:16:15;;;;;;;0.88;0.50;;;;;;;18.81;37.08;100435.78;10429338;28;20048;-70
2024/03/16 13:21:16;;;;;;;1.27;0.30;;;;;;;17.92;37.52;100435.72;10422071;28;20136;-70
2024/03/16 13:26:16;;;;;;;1.27;0.52;;;;;;;17.46;41.50;100433.44;10435582;28;20290;-70
2024/03/16 13:31:17;;;;;;;1.05;0.40;;;;;;;17.19;41.01;100438.06;10433654;28;20068;-72
2024/03/16 13:36:17;;;;;;;1.00;0.32;;;;;;;16.69;42.35;100438.75;10419436;28;20152;-70
2024/03/16 13:41:18;;;;;;;0.47;0.20;;;;;;;16.48;41.56;100437.28;10432318;28;20056;-70
2024/03/16 13:46:18;;;;;;;1.27;0.60;;;;;;;15.99;43.69;100444.94;10429243;28;20075;-71
2024/03/16 13:51:23;;;;;;;0.43;0.20;;;;;;;15.54;44.22;100452.06;10428298;28;20055;-70
2024/03/16 13:56:24;;;;;;;1.25;0.20;;;;;;;15.43;43.41;100455.75;10433771;28;20378;-71
2024/03/16 14:01:27;;;;;;;0.70;0.10;;;;;;;14.84;44.65;100457.88;10424451;28;20652;-70
2024/03/16 14:06:28;;;;;;;1.20;0.50;;;;;;;14.78;45.89;100478.06;10418243;28;20187;-71
2024/03/16 14:11:28;;;;;;;0.32;0.10;;;;;;;15.26;46.11;100480.72;10412423;28;20546;-71
2024/03/16 14:16:30;;;;;;;1.58;0.25;;;;;;;16.00;44.60;100490.47;10404271;28;20156;-71
2024/03/16 14:21:32;;;;;;;0.50;0.13;;;;;;;16.00;43.45;100487.78;10423704;28;20575;-69
2024/03/16 14:26:33;;;;;;;0.63;0.30;;;;;;;16.37;44.33;100489.44;10420907;28;20077;-70
2024/03/16 14:31:35;;;;;;;0.38;0.20;;;;;;;17.28;42.62;100481.97;10429010;28;20053;-69
2024/03/16 14:36:35;;;;;;;0.68;0.20;;;;;;;16.82;42.77;100481.38;10430454;28;20072;-70
2024/03/16 14:41:36;;;;;;;0.85;0.20;;;;;;;16.86;44.81;100499.69;10448368;28;20095;-70
2024/03/16 14:46:36;;;;;;;0.82;0.30;;;;;;;16.82;45.73;100506.38;10430644;28;20040;-70
2024/03/16 14:51:37;;;;;;;0.85;0.30;;;;;;;16.34;46.13;100521.16;10429503;28;20140;-70
2024/03/16 14:56:37;;;;;;;1.02;0.52;;;;;;;16.30;45.54;100527.81;10415172;28;20126;-70
2024/03/16 15:01:38;;;;;;;1.10;0.30;;;;;;;15.65;46.74;100536.84;10433735;28;20036;-70
2024/03/16 15:06:39;;;;;;;0.95;0.45;;;;;;;15.32;47.74;100552.53;10435370;28;20073;-68
2024/03/16 15:11:39;;;;;;;1.58;0.85;;;;;;;15.23;48.05;100554.25;10427506;28;20064;-70
2024/03/16 15:16:40;;;;;;;1.50;0.30;;;;;;;14.88;49.82;100565.63;10430380;28;20872;-72
2024/03/16 15:21:40;;;;;;;2.20;0.47;;;;;;;15.15;48.55;100571.06;10413330;28;20132;-70
2024/03/16 15:26:53;;;;;;;1.08;0.28;;;;;;;15.00;48.44;100561.81;10366482;28;20052;-70
2024/03/16 15:31:54;;;;;;;0.63;0.30;;;;;;;14.43;47.23;100570.56;10438077;28;20282;-70
2024/03/16 15:36:55;;;;;;;0.70;0.32;;;;;;;13.92;48.59;100587.72;10434187;28;20652;-70
2024/03/16 15:41:55;;;;;;;0.82;0.40;;;;;;;13.65;48.31;100589.19;10436039;28;20132;-70
2024/03/16 15:46:56;;;;;;;0.77;0.65;;;;;;;13.57;49.83;100591.66;10421449;28;20124;-69
2024/03/16 15:51:56;;;;;;;1.42;0.40;;;;;;;13.38;50.70;100595.94;10425129;28;20710;-71
2024/03/16 15:56:57;;;;;;;0.70;0.40;;;;;;;13.70;50.34;100613.69;10423725;28;20447;-72
2024/03/16 16:01:57;;;;;;;1.17;0.55;;;;;;;13.12;50.62;100621.38;10428551;28;20083;-70
2024/03/16 16:07:01;;;;;;;2.92;1.98;;;;;;;13.24;51.24;100625.66;10426487;28;20052;-69
2024/03/16 16:12:02;;;;;;;2.38;0.80;;;;;;;13.59;51.00;100632.50;10434726;28;22722;-71
2024/03/16 16:17:03;;;;;;;1.90;0.65;;;;;;;13.77;49.69;100635.41;10427109;28;20048;-70
2024/03/16 16:22:03;;;;;;;0.73;0.40;;;;;;;13.38;49.05;100653.94;10405756;28;20122;-70
2024/03/16 16:27:08;;;;;;;1.45;0.65;;;;;;;12.95;50.87;100650.38;10437934;28;20048;-69
2024/03/16 16:32:08;;;;;;;0.47;0.30;;;;;;;12.85;51.58;100668.16;10373401;28;20167;-70
2024/03/16 16:37:10;;;;;;;0.80;0.30;;;;;;;12.88;53.50;100670.56;10429507;28;20064;-62
2024/03/16 16:42:12;;;;;;;0.52;0.50;;;;;;;12.95;56.37;100681.59;10432431;28;20112;-62
2024/03/16 16:47:12;;;;;;;1.45;0.43;;;;;;;13.05;53.97;100683.38;10426513;28;20135;-61
2024/03/16 16:52:14;;;;;;;0.55;0.32;;;;;;;12.97;53.67;100685.84;10430078;28;20469;-62
2024/03/16 16:57:15;;;;;;;0.52;0.30;;;;;;;12.94;53.90;100695.94;10430951;28;20801;-60
2024/03/16 17:02:15;;;;;;;2.38;1.00;;;;;;;12.97;54.62;100699.22;10397522;28;20041;-61
2024/03/16 17:07:16;;;;;;;1.55;0.47;;;;;;;12.77;53.02;100711.53;10409955;28;20056;-61
2024/03/16 17:12:17;;;;;;;1.58;0.77;;;;;;;12.84;53.73;100710.06;10429235;28;20520;-62
2024/03/16 17:17:17;;;;;;;2.97;0.70;;;;;;;12.57;53.16;100715.84;10424115;28;20063;-62
2024/03/16 17:22:18;;;;;;;2.38;0.82;;;;;;;12.23;53.54;100731.91;10397146;28;20128;-62
2024/03/16 17:27:19;;;;;;;1.30;0.80;;;;;;;12.35;54.13;100714.91;10421879;28;20601;-62
2024/03/16 17:32:20;;;;;;;0.98;0.70;;;;;;;12.06;53.26;100717.25;10420920;28;20135;-62
2024/03/16 17:37:20;;;;;;;2.25;0.90;;;;;;;12.20;54.52;100748.19;10415457;28;20182;-61
2024/03/16 17:42:21;;;;;;;3.08;1.00;;;;;;;12.49;53.78;100750.31;10426176;28;20041;-61
2024/03/16 17:47:21;;;;;;;1.90;0.80;;;;;;;12.47;52.76;100771.81;10423467;28;20055;-63
2024/03/16 17:52:22;;;;;;;1.80;0.93;;;;;;;12.42;53.67;100783.84;10418036;28;20451;-63
2024/03/16 17:57:23;;;;;;;1.48;1.10;;;;;;;12.27;53.54;100789.44;10427272;28;20050;-61
2024/03/16 18:02:23;;;;;;;2.40;0.80;;;;;;;12.30;53.36;100788.34;10400465;28;20049;-62
2024/03/16 18:07:24;;;;;;;1.30;0.98;;;;;;;11.92;54.18;100787.69;10426997;28;20040;-62
2024/03/16 18:12:25;;;;;;;2.47;1.10;;;;;;;11.96;55.30;100801.66;10410112;28;20600;-61
2024/03/16 18:17:26;;;;;;;4.05;1.00;;;;;;;12.22;54.86;100802.31;10415179;28;20418;-61
2024/03/16 18:22:26;;;;;;;3.28;1.23;;;;;;;12.07;54.65;100787.47;10411391;28;20064;-62
2024/03/16 18:27:30;;;;;;;1.52;0.80;;;;;;;12.11;55.74;100802.28;10412701;28;20167;-63
2024/03/16 18:32:32;;;;;;;2.70;1.30;;;;;;;11.95;55.58;100786.59;10403005;28;20147;-62
2024/03/16 18:37:33;;;;;;;2.45;1.60;;;;;;;12.17;56.58;100809.81;10409950;28;20143;-62
2024/03/16 18:42:33;;;;;;;4.30;3.05;;;;;;;12.26;55.67;100811.75;10426023;28;20083;-60
2024/03/16 18:47:34;;;;;;;4.85;2.78;;;;;;;12.26;55.39;100817.09;10374401;28;20191;-60
2024/03/16 18:52:39;;;;;;;2.30;2.10;;;;;;;12.21;55.45;100805.94;10443920;28;20053;-61
2024/03/16 18:57:40;;;;;;;2.33;1.50;;;;;;;12.18;53.63;100814.19;10426556;28;21950;-61
2024/03/16 19:02:41;;;;;;;3.05;1.52;;;;;;;12.17;52.53;100836.50;10429754;28;20045;-61
2024/03/16 19:07:41;;;;;;;2.22;2.03;;;;;;;12.14;52.34;100848.25;10425197;28;20041;-61
2024/03/16 19:12:43;;;;;;;1.25;1.00;;;;;;;12.07;51.93;100852.38;10414362;28;20090;-62
2024/03/16 19:17:44;;;;;;;2.45;0.88;;;;;;;12.06;51.30;100858.69;10422768;28;20124;-62
2024/03/16 19:22:46;;;;;;;1.85;1.20;;;;;;;12.03;52.03;100867.75;10392533;28;20523;-61
2024/03/16 19:27:47;;;;;;;1.48;1.13;;;;;;;12.06;51.95;100876.53;10424378;28;20297;-63
2024/03/16 19:32:49;;;;;;;2.63;1.02;;;;;;;12.09;51.98;100881.63;10410798;28;20136;-62
2024/03/16 19:37:50;;;;;;;2.72;2.00;;;;;;;12.08;52.64;100888.75;10405127;28;20605;-62
2024/03/16 19:42:54;;;;;;;4.63;1.60;;;;;;;12.11;52.29;100895.69;10411501;28;20036;-61
2024/03/16 19:47:55;;;;;;;3.20;1.90;;;;;;;12.06;52.35;100887.19;10422722;28;20152;-63
2024/03/16 19:52:56;;;;;;;2.03;1.13;;;;;;;12.10;51.98;100892.19;10422278;28;20158;-63
2024/03/16 19:57:56;;;;;;;1.23;1.08;;;;;;;12.07;51.50;100894.22;10430874;28;20169;-62
2024/03/16 20:02:57;;;;;;;2.45;1.42;;;;;;;12.08;52.27;100895.91;10434839;28;20140;-64
2024/03/16 20:07:57;;;;;;;2.33;1.58;;;;;;;11.99;51.24;100903.69;10437122;28;20057;-61
2024/03/16 20:12:58;;;;;;;2.40;1.65;;;;;;;11.99;50.93;100903.69;10432474;28;20049;-63
2024/03/16 20:17:58;;;;;;;7.05;4.90;;;;;;;12.01;50.73;100907.06;10439160;28;20049;-61
2024/03/16 20:22:59;;;;;;;5.60;3.80;;;;;;;11.99;51.29;100908.13;10418848;28;20068;-63
2024/03/16 20:28:00;;;;;;;3.65;2.47;;;;;;;11.98;50.56;100917.97;10418020;28;20044;-62
2024/03/16 20:33:01;;;;;;;3.40;2.28;;;;;;;11.94;50.26;100921.84;10434188;28;20183;-62
2024/03/16 20:38:01;;;;;;;1.90;1.70;;;;;;;11.90;51.27;100924.81;10431171;28;20213;-64
2024/03/16 20:43:02;;;;;;;3.38;1.45;;;;;;;11.89;50.47;100937.31;10432519;28;20052;-62
2024/03/16 20:48:02;;;;;;;1.88;1.65;;;;;;;11.83;51.09;100945.78;10434899;28;20064;-61
2024/03/16 20:53:03;;;;;;;2.42;1.88;;;;;;;11.85;51.74;100947.34;10389493;28;20632;-61
2024/03/16 20:58:04;;;;;;;2.92;1.60;;;;;;;11.86;51.16;100934.88;10405270;28;20049;-61
2024/03/16 21:03:05;;;;;;;1.88;1.50;;;;;;;11.80;51.29;100943.31;10428077;28;20056;-62
2024/03/16 21:08:06;;;;;;;2.90;2.40;;;;;;;11.79;50.56;100944.31;10387995;28;20147;-62
2024/03/16 21:13:06;;;;;;;2.85;2.15;;;;;;;11.80;51.04;100946.84;10413761;28;20707;-62
2024/03/16 21:18:07;;;;;;;3.33;2.35;;;;;;;11.81;50.69;100942.34;10420074;28;20135;-62
2024/03/16 21:23:07;;;;;;;3.08;1.80;;;;;;;11.66;50.49;100929.22;10404504;28;20059;-60
2024/03/16 21:28:09;;;;;;;2.55;1.75;;;;;;;11.75;51.09;100942.81;10419401;28;20120;-62
2024/03/16 21:33:10;;;;;;;3.05;1.40;;;;;;;11.73;50.54;100936.75;10417242;28;20131;-61
2024/03/16 21:38:11;;;;;;;2.05;1.05;;;;;;;11.69;50.54;100944.13;10435378;28;20135;-62
2024/03/16 21:43:12;;;;;;;3.28;1.27;;;;;;;11.63;49.34;100942.78;10411311;28;20270;-61
2024/03/16 21:48:12;;;;;;;2.58;1.40;;;;;;;11.62;49.74;100937.53;10424946;28;20093;-62
2024/03/16 21:53:13;;;;;;;1.52;1.25;;;;;;;11.59;49.97;100938.63;10433355;28;20060;-63
2024/03/16 21:58:15;;;;;;;3.30;1.80;;;;;;;11.47;49.27;100923.53;10397569;28;20132;-60
2024/03/16 22:03:17;;;;;;;1.80;1.25;;;;;;;11.47;49.76;100932.38;10408859;28;20155;-62
2024/03/16 22:08:18;;;;;;;2.88;1.15;;;;;;;11.46;49.64;100932.50;10410159;28;20054;-62
2024/03/16 22:13:19;;;;;;;2.47;1.80;;;;;;;11.45;50.49;100936.13;10424380;28;20159;-61
2024/03/16 22:18:19;;;;;;;8.45;5.82;;;;;;;11.42;50.28;100944.34;10418981;28;20063;-61
2024/03/16 22:23:21;;;;;;;2.00;1.27;;;;;;;11.46;49.94;100943.16;10415635;28;20140;-62
2024/03/16 22:28:23;;;;;;;3.53;1.27;;;;;;;11.48;49.99;100941.22;10430311;28;20144;-63
2024/03/16 22:33:24;;;;;;;4.43;1.00;;;;;;;11.42;49.33;100936.34;10414796;28;20171;-61
2024/03/16 22:38:25;;;;;;;3.72;1.60;;;;;;;11.48;49.29;100951.88;10378275;28;20421;-61
2024/03/16 22:43:26;;;;;;;2.78;1.27;;;;;;;11.48;49.25;100958.09;10428650;28;20048;-62
2024/03/16 22:48:27;;;;;;;3.13;0.68;;;;;;;11.44;50.34;100945.06;10430345;28;20123;-60
2024/03/16 22:53:28;;;;;;;1.40;0.65;;;;;;;11.52;49.48;100956.03;10434529;28;20049;-62
2024/03/16 22:58:28;;;;;;;2.83;0.80;;;;;;;11.49;49.14;100942.94;10423449;28;20087;-61
2024/03/16 23:03:30;;;;;;;2.28;1.00;;;;;;;11.34;48.72;100925.41;10412449;28;20123;-62
2024/03/16 23:08:31;;;;;;;2.40;1.05;;;;;;;11.46;48.67;100949.34;10403960;28;20044;-61
2024/03/16 23:13:33;;;;;;;4.00;2.53;;;;;;;11.51;49.52;100962.31;10406005;28;20052;-62